createdAt,value
2022-09-23T00:01:01.898Z,2.17
2022-09-23T00:03:28.093Z,2.42
2022-09-23T00:05:54.220Z,2.40
2022-09-23T00:08:20.359Z,2.25
2022-09-23T00:10:46.491Z,2.45
2022-09-23T00:13:12.632Z,2.15
2022-09-23T00:15:38.751Z,2.40
2022-09-23T00:18:04.889Z,2.80
2022-09-23T00:20:31.010Z,2.30
2022-09-23T00:22:57.143Z,2.20
2022-09-23T00:25:23.282Z,2.30
2022-09-23T00:27:49.400Z,2.53
2022-09-23T00:30:15.541Z,2.10
2022-09-23T00:32:41.683Z,2.28
2022-09-23T00:35:07.810Z,2.30
2022-09-23T00:37:33.968Z,2.45
2022-09-23T00:40:00.084Z,2.30
2022-09-23T00:42:26.209Z,2.58
2022-09-23T00:44:52.356Z,2.47
2022-09-23T00:47:18.479Z,2.50
2022-09-23T00:49:44.591Z,2.13
2022-09-23T00:52:10.726Z,1.92
2022-09-23T00:54:36.851Z,2.15
2022-09-23T00:57:02.987Z,2.55
2022-09-23T00:59:29.162Z,2.10
2022-09-23T01:01:55.602Z,2.13
2022-09-23T01:04:21.778Z,2.20
2022-09-23T01:06:47.901Z,2.45
2022-09-23T01:09:14.019Z,2.50
2022-09-23T01:11:40.166Z,2.30
2022-09-23T01:14:06.292Z,2.10
2022-09-23T01:16:32.525Z,2.22
2022-09-23T01:18:58.703Z,2.10
2022-09-23T01:21:24.832Z,2.22
2022-09-23T01:23:50.985Z,2.10
2022-09-23T01:26:17.088Z,2.70
2022-09-23T01:28:43.218Z,2.17
2022-09-23T01:31:09.419Z,2.53
2022-09-23T01:33:35.649Z,2.78
2022-09-23T01:36:01.762Z,2.65
2022-09-23T01:38:27.991Z,2.40
2022-09-23T01:40:54.147Z,2.42
2022-09-23T01:43:20.272Z,2.38
2022-09-23T01:45:46.416Z,2.55
2022-09-23T01:48:12.541Z,2.60
2022-09-23T01:50:38.707Z,2.58
2022-09-23T01:53:04.820Z,2.08
2022-09-23T01:55:30.964Z,2.53
2022-09-23T01:57:57.107Z,2.72
2022-09-23T02:00:23.247Z,2.47
2022-09-23T02:02:49.518Z,2.28
2022-09-23T02:05:15.747Z,2.42
2022-09-23T02:07:41.890Z,2.42
2022-09-23T02:10:08.013Z,2.30
2022-09-23T02:12:34.154Z,2.40
2022-09-23T02:15:00.274Z,2.30
2022-09-23T02:17:26.408Z,2.20
2022-09-23T02:19:52.549Z,2.20
2022-09-23T02:22:18.657Z,2.40
2022-09-23T02:24:44.812Z,2.55
2022-09-23T02:27:10.951Z,3.55
2022-09-23T02:29:37.067Z,2.55
2022-09-23T02:32:03.255Z,2.17
2022-09-23T02:34:29.417Z,2.40
2022-09-23T02:36:55.560Z,2.40
2022-09-23T02:39:21.662Z,2.40
2022-09-23T02:41:47.797Z,2.50
2022-09-23T02:44:13.922Z,2.30
2022-09-23T02:46:40.015Z,2.88
2022-09-23T02:49:06.149Z,2.80
2022-09-23T02:51:32.264Z,3.03
2022-09-23T02:53:58.570Z,2.88
2022-09-23T02:56:24.721Z,2.85
2022-09-23T02:58:50.830Z,2.80
2022-09-23T03:01:16.997Z,2.85
2022-09-23T03:03:43.158Z,2.60
2022-09-23T03:06:09.317Z,2.90
2022-09-23T03:08:35.429Z,2.70
2022-09-23T03:11:01.596Z,2.75
2022-09-23T03:13:29.451Z,2.80
2022-09-23T03:15:55.763Z,2.28
2022-09-23T03:18:21.896Z,2.42
2022-09-23T03:20:48.013Z,2.90
2022-09-23T03:23:14.141Z,2.92
2022-09-23T03:25:40.276Z,2.97
2022-09-23T03:28:06.400Z,2.70
2022-09-23T03:30:32.518Z,2.47
2022-09-23T03:32:58.635Z,2.83
2022-09-23T03:35:24.773Z,3.42
2022-09-23T03:37:50.904Z,3.10
2022-09-23T03:40:17.121Z,3.28
2022-09-23T03:42:43.259Z,3.50
2022-09-23T03:45:09.358Z,3.00
2022-09-23T03:47:35.498Z,3.75
2022-09-23T03:50:01.618Z,3.58
2022-09-23T03:52:27.740Z,3.15
2022-09-23T03:54:53.893Z,3.22
2022-09-23T03:57:20.037Z,3.28
2022-09-23T03:59:46.169Z,3.08
2022-09-23T04:02:12.335Z,3.60
2022-09-23T04:04:38.496Z,3.15
2022-09-23T04:07:04.613Z,4.07
2022-09-23T04:09:30.743Z,3.63
2022-09-23T04:11:56.884Z,3.83
2022-09-23T04:14:23.003Z,3.75
2022-09-23T04:16:49.175Z,3.72
2022-09-23T04:19:15.345Z,3.80
2022-09-23T04:21:41.485Z,3.78
2022-09-23T04:24:07.628Z,3.47
2022-09-23T04:26:33.752Z,3.10
2022-09-23T04:29:00.020Z,3.40
2022-09-23T04:31:26.313Z,3.05
2022-09-23T04:33:52.495Z,3.50
2022-09-23T04:36:18.636Z,3.35
2022-09-23T04:38:44.740Z,2.88
2022-09-23T04:41:10.866Z,3.45
2022-09-23T04:43:37.012Z,3.28
2022-09-23T04:46:03.128Z,3.22
2022-09-23T04:48:29.231Z,3.40
2022-09-23T04:50:55.377Z,3.10
2022-09-23T04:53:21.521Z,3.13
2022-09-23T04:55:47.663Z,3.25
2022-09-23T04:58:13.858Z,3.08
2022-09-23T05:00:40.058Z,4.35
2022-09-23T05:03:06.261Z,4.93
2022-09-23T05:05:32.447Z,5.13
2022-09-23T05:07:58.565Z,5.40
2022-09-23T05:10:24.699Z,5.50
2022-09-23T05:12:56.343Z,5.50
2022-09-23T05:15:23.299Z,5.07
2022-09-23T05:17:49.445Z,5.60
2022-09-23T05:20:15.557Z,4.43
2022-09-23T05:22:41.676Z,4.30
2022-09-23T05:25:07.821Z,4.40
2022-09-23T05:27:33.969Z,3.70
2022-09-23T05:30:00.104Z,4.03
2022-09-23T05:32:26.237Z,4.43
2022-09-23T05:34:52.369Z,2.88
2022-09-23T05:37:18.497Z,3.50
2022-09-23T05:39:44.644Z,3.63
2022-09-23T05:42:10.770Z,3.55
2022-09-23T05:44:36.901Z,3.58
2022-09-23T05:47:03.114Z,3.90
2022-09-23T05:49:48.205Z,4.78
2022-09-23T05:52:15.412Z,3.70
2022-09-23T05:54:41.528Z,4.05
2022-09-23T05:57:07.670Z,4.38
2022-09-23T05:59:33.841Z,4.10
2022-09-23T06:02:00.054Z,4.03
2022-09-23T06:04:26.228Z,4.00
2022-09-23T06:06:52.357Z,4.47
2022-09-23T06:09:18.512Z,4.18
2022-09-23T06:11:44.642Z,4.72
2022-09-23T06:14:10.757Z,4.47
2022-09-23T06:16:36.894Z,4.28
2022-09-23T06:19:05.441Z,5.38
2022-09-23T06:21:32.272Z,4.72
2022-09-23T06:23:58.412Z,6.15
2022-09-23T06:26:24.564Z,6.70
2022-09-23T06:28:50.677Z,7.70
2022-09-23T06:31:16.902Z,6.82
2022-09-23T06:33:43.068Z,8.45
2022-09-23T06:36:09.234Z,7.78
2022-09-23T06:38:35.437Z,7.63
2022-09-23T06:41:01.559Z,7.88
2022-09-23T06:43:27.709Z,7.85
2022-09-23T06:45:53.856Z,8.43
2022-09-23T06:48:20.040Z,8.63
2022-09-23T06:50:46.161Z,8.57
2022-09-23T06:53:12.276Z,7.63
2022-09-23T06:55:38.414Z,7.45
2022-09-23T06:58:04.564Z,6.85
2022-09-23T07:00:30.685Z,6.80
2022-09-23T07:02:56.882Z,6.25
2022-09-23T07:05:23.103Z,7.63
2022-09-23T07:07:49.245Z,7.78
2022-09-23T07:10:15.370Z,7.78
2022-09-23T07:12:41.515Z,8.40
2022-09-23T07:15:07.642Z,8.88
2022-09-23T07:17:33.777Z,8.77
2022-09-23T07:19:59.928Z,8.52
2022-09-23T07:22:26.063Z,8.05
2022-09-23T07:24:54.996Z,7.88
2022-09-23T07:27:21.209Z,8.48
2022-09-23T07:29:48.872Z,8.32
2022-09-23T07:32:15.232Z,7.32
2022-09-23T07:34:41.403Z,7.07
2022-09-23T07:37:07.533Z,7.35
2022-09-23T07:39:33.699Z,6.00
2022-09-23T07:41:59.871Z,6.82
2022-09-23T07:44:26.026Z,6.80
2022-09-23T07:46:52.226Z,6.70
2022-09-23T07:49:18.421Z,5.57
2022-09-23T07:51:44.574Z,5.30
2022-09-23T07:54:10.748Z,4.80
2022-09-23T07:56:36.876Z,4.68
2022-09-23T07:59:03.078Z,4.72
2022-09-23T08:01:29.404Z,4.93
2022-09-23T08:03:55.627Z,4.13
2022-09-23T08:06:21.793Z,4.75
2022-09-23T08:08:52.531Z,4.10
2022-09-23T08:11:19.379Z,3.78
2022-09-23T08:13:45.565Z,3.53
2022-09-23T08:16:11.788Z,3.05
2022-09-23T08:18:37.988Z,3.15
2022-09-23T08:21:04.127Z,2.60
2022-09-23T08:23:30.313Z,3.00
2022-09-23T08:25:58.848Z,3.10
2022-09-23T08:28:25.570Z,2.53
2022-09-23T08:30:51.830Z,3.00
2022-09-23T08:33:23.144Z,3.00
2022-09-23T08:35:49.874Z,2.97
2022-09-23T08:38:15.996Z,2.97
2022-09-23T08:40:42.411Z,3.10
2022-09-23T08:43:08.592Z,2.80
2022-09-23T08:45:34.713Z,2.75
2022-09-23T08:48:00.892Z,3.00
2022-09-23T08:50:27.066Z,3.33
2022-09-23T08:52:53.215Z,3.08
2022-09-23T08:55:19.336Z,3.17
2022-09-23T08:57:57.511Z,2.97
2022-09-23T09:00:31.630Z,3.00
2022-09-23T09:02:57.787Z,2.90
2022-09-23T09:05:23.944Z,2.75
2022-09-23T09:07:50.089Z,2.90
2022-09-23T09:10:16.205Z,3.13
2022-09-23T09:12:42.375Z,3.30
2022-09-23T09:15:08.493Z,3.15
2022-09-23T09:17:35.210Z,3.05
2022-09-23T09:20:01.430Z,3.03
2022-09-23T09:22:27.712Z,2.90
2022-09-23T09:24:53.886Z,2.88
2022-09-23T09:27:20.025Z,3.35
2022-09-23T09:29:46.206Z,2.92
2022-09-23T09:32:12.337Z,2.63
2022-09-23T09:34:38.477Z,2.45
2022-09-23T09:37:07.016Z,3.00
2022-09-23T09:39:33.645Z,3.38
2022-09-23T09:41:59.778Z,3.03
2022-09-23T09:44:25.950Z,2.67
2022-09-23T09:46:52.166Z,2.83
2022-09-23T09:49:18.395Z,2.80
2022-09-23T09:51:44.557Z,2.88
2022-09-23T09:54:10.619Z,3.08
2022-09-23T09:56:36.823Z,3.00
2022-09-23T09:59:03.034Z,2.75
2022-09-23T10:01:29.258Z,2.70
2022-09-23T10:03:57.060Z,2.92
2022-09-23T10:06:25.243Z,2.92
2022-09-23T10:08:51.380Z,3.35
2022-09-23T10:11:17.508Z,2.92
2022-09-23T10:13:43.659Z,2.90
2022-09-23T10:16:09.826Z,3.30
2022-09-23T10:18:35.986Z,2.80
2022-09-23T10:21:02.129Z,3.00
2022-09-23T10:23:28.244Z,2.80
2022-09-23T10:25:54.369Z,3.13
2022-09-23T10:28:20.511Z,2.95
2022-09-23T10:30:46.722Z,2.67
2022-09-23T10:33:12.865Z,2.90
2022-09-23T10:35:38.992Z,2.70
2022-09-23T10:38:05.144Z,3.28
2022-09-23T10:40:31.350Z,2.78
2022-09-23T10:42:57.530Z,2.53
2022-09-23T10:45:23.643Z,2.60
2022-09-23T10:47:50.741Z,3.38
2022-09-23T10:50:16.899Z,3.05
2022-09-23T10:52:43.016Z,3.25
2022-09-23T10:55:09.168Z,3.17
2022-09-23T10:57:35.316Z,2.97
2022-09-23T11:00:01.518Z,2.90
2022-09-23T11:02:27.732Z,3.08
2022-09-23T11:04:53.933Z,2.45
2022-09-23T11:07:20.099Z,2.80
2022-09-23T11:09:46.230Z,2.80
2022-09-23T11:12:12.395Z,2.95
2022-09-23T11:14:38.522Z,3.35
2022-09-23T11:17:04.763Z,2.70
2022-09-23T11:19:31.020Z,2.83
2022-09-23T11:21:57.203Z,3.30
2022-09-23T11:24:23.406Z,3.15
2022-09-23T11:26:49.544Z,2.65
2022-09-23T11:29:15.679Z,3.42
2022-09-23T11:31:41.783Z,3.00
2022-09-23T11:34:08.087Z,2.85
2022-09-23T11:36:34.374Z,2.78
2022-09-23T11:39:00.529Z,2.95
2022-09-23T11:41:26.677Z,2.70
2022-09-23T11:43:52.801Z,2.75
2022-09-23T11:46:19.002Z,2.92
2022-09-23T11:48:45.163Z,2.88
2022-09-23T11:51:11.289Z,2.90
2022-09-23T11:53:37.437Z,2.88
2022-09-23T11:56:03.574Z,3.35
2022-09-23T11:58:29.759Z,2.90
2022-09-23T12:01:00.085Z,2.55
2022-09-23T12:03:40.371Z,2.53
2022-09-23T12:06:07.317Z,2.80
2022-09-23T12:08:33.432Z,2.70
2022-09-23T12:10:59.590Z,3.00
2022-09-23T12:13:25.740Z,2.83
2022-09-23T12:15:51.875Z,2.70
2022-09-23T12:18:22.849Z,2.50
2022-09-23T12:20:49.462Z,2.80
2022-09-23T12:23:15.585Z,3.08
2022-09-23T12:25:41.744Z,2.92
2022-09-23T12:28:07.886Z,2.60
2022-09-23T12:30:34.107Z,2.65
2022-09-23T12:33:00.276Z,2.88
2022-09-23T12:35:26.413Z,2.60
2022-09-23T12:37:52.554Z,3.15
2022-09-23T12:40:18.748Z,2.33
2022-09-23T12:42:44.939Z,2.25
2022-09-23T12:45:11.078Z,2.60
2022-09-23T12:47:37.242Z,2.40
2022-09-23T12:50:03.399Z,2.30
2022-09-23T12:52:29.554Z,2.10
2022-09-23T12:54:55.671Z,2.50
2022-09-23T12:57:21.813Z,2.40
2022-09-23T12:59:48.040Z,2.35
2022-09-23T13:02:14.345Z,2.88
2022-09-23T13:04:40.527Z,2.50
2022-09-23T13:07:06.655Z,3.33
2022-09-23T13:09:32.773Z,2.60
2022-09-23T13:11:58.941Z,2.28
2022-09-23T13:14:27.565Z,2.55
2022-09-23T13:16:54.152Z,2.67
2022-09-23T13:19:20.325Z,2.40
2022-09-23T13:21:46.488Z,2.40
2022-09-23T13:24:12.651Z,2.17
2022-09-23T13:26:38.817Z,2.47
2022-09-23T13:29:04.948Z,2.33
2022-09-23T13:31:31.321Z,2.55
2022-09-23T13:33:57.553Z,2.20
2022-09-23T13:36:23.688Z,2.25
2022-09-23T13:38:49.841Z,2.15
2022-09-23T13:41:15.991Z,2.40
2022-09-23T13:43:42.130Z,2.25
2022-09-23T13:46:08.361Z,2.25
2022-09-23T13:48:34.574Z,2.22
2022-09-23T13:51:00.726Z,2.88
2022-09-23T13:53:26.877Z,2.30
2022-09-23T13:55:53.032Z,2.30
2022-09-23T13:58:19.165Z,2.65
2022-09-23T14:00:45.330Z,2.53
2022-09-23T14:03:11.515Z,2.22
2022-09-23T14:05:37.663Z,2.95
2022-09-23T14:08:03.825Z,2.90
2022-09-23T14:10:29.992Z,3.00
2022-09-23T14:12:56.135Z,2.75
2022-09-23T14:15:22.297Z,2.40
2022-09-23T14:17:48.425Z,2.55
2022-09-23T14:20:14.627Z,3.45
2022-09-23T14:22:40.764Z,2.53
2022-09-23T14:25:08.661Z,2.50
2022-09-23T14:27:34.824Z,2.45
2022-09-23T14:30:00.975Z,2.30
2022-09-23T14:32:27.144Z,2.35
2022-09-23T14:34:53.297Z,2.13
2022-09-23T14:37:25.646Z,2.53
2022-09-23T14:39:57.048Z,2.63
2022-09-23T14:42:23.891Z,2.53
2022-09-23T14:44:50.090Z,2.50
2022-09-23T14:47:16.234Z,2.05
2022-09-23T14:49:42.371Z,2.58
2022-09-23T14:52:08.524Z,2.47
2022-09-23T14:54:34.708Z,2.33
2022-09-23T14:57:00.848Z,2.40
2022-09-23T14:59:26.962Z,2.35
2022-09-23T15:01:53.134Z,2.47
2022-09-23T15:04:19.336Z,2.30
2022-09-23T15:06:45.521Z,2.50
2022-09-23T15:09:11.663Z,2.92
2022-09-23T15:11:37.831Z,2.40
2022-09-23T15:14:33.147Z,2.30
2022-09-23T15:16:50.189Z,2.30
2022-09-23T15:19:16.364Z,2.33
2022-09-23T15:21:42.521Z,2.47
2022-09-23T15:24:08.714Z,1.98
2022-09-23T15:26:34.859Z,2.58
2022-09-23T15:29:00.988Z,2.25
2022-09-23T15:31:27.203Z,2.50
2022-09-23T15:33:53.429Z,2.60
2022-09-23T15:36:19.662Z,2.45
2022-09-23T15:38:45.812Z,2.55
2022-09-23T15:41:11.947Z,2.75
2022-09-23T15:43:38.113Z,2.40
2022-09-23T15:46:04.267Z,2.72
2022-09-23T15:48:30.441Z,2.30
2022-09-23T15:50:56.610Z,2.50
2022-09-23T15:53:22.741Z,2.45
2022-09-23T15:55:48.916Z,2.72
2022-09-23T15:58:15.056Z,2.50
2022-09-23T16:00:41.267Z,2.60
2022-09-23T16:03:07.441Z,2.80
2022-09-23T16:05:47.119Z,2.53
2022-09-23T16:08:13.279Z,3.25
2022-09-23T16:10:39.463Z,3.17
2022-09-23T16:13:05.624Z,3.88
2022-09-23T16:15:32.017Z,3.13
2022-09-23T16:17:58.144Z,3.40
2022-09-23T16:20:24.317Z,2.55
2022-09-23T16:22:50.434Z,3.08
2022-09-23T16:25:16.632Z,2.72
2022-09-23T16:27:42.770Z,2.15
2022-09-23T16:30:08.890Z,2.35
2022-09-23T16:32:35.059Z,3.03
2022-09-23T16:35:01.169Z,2.70
2022-09-23T16:37:27.342Z,3.20
2022-09-23T16:39:53.479Z,3.28
2022-09-23T16:42:19.640Z,2.90
2022-09-23T16:44:45.846Z,3.83
2022-09-23T16:47:11.998Z,3.70
2022-09-23T16:49:38.141Z,3.42
2022-09-23T16:52:04.322Z,3.05
2022-09-23T16:54:30.471Z,3.00
2022-09-23T16:56:56.617Z,4.13
2022-09-23T16:59:22.737Z,4.45
2022-09-23T17:01:48.934Z,4.35
2022-09-23T17:04:15.222Z,4.28
2022-09-23T17:06:41.353Z,3.92
2022-09-23T17:09:07.534Z,3.95
2022-09-23T17:11:34.301Z,5.05
2022-09-23T17:14:00.525Z,4.50
2022-09-23T17:16:26.750Z,4.68
2022-09-23T17:18:52.942Z,4.03
2022-09-23T17:21:19.075Z,3.67
2022-09-23T17:23:45.222Z,3.35
2022-09-23T17:26:11.352Z,3.78
2022-09-23T17:28:37.464Z,3.40
2022-09-23T17:31:03.665Z,3.22
2022-09-23T17:33:29.784Z,3.25
2022-09-23T17:35:55.978Z,2.80
2022-09-23T17:38:25.598Z,2.90
2022-09-23T17:40:54.302Z,2.92
2022-09-23T17:43:20.464Z,2.85
2022-09-23T17:45:46.677Z,2.85
2022-09-23T17:48:12.900Z,2.88
2022-09-23T17:50:39.069Z,3.50
2022-09-23T17:53:05.239Z,3.33
2022-09-23T17:55:31.422Z,3.05
2022-09-23T17:57:57.589Z,3.00
2022-09-23T18:00:23.723Z,3.42
2022-09-23T18:02:49.832Z,3.97
2022-09-23T18:05:15.986Z,3.40
2022-09-23T18:07:42.161Z,3.00
2022-09-23T18:10:08.307Z,3.50
2022-09-23T18:12:37.436Z,3.67
2022-09-23T18:15:03.574Z,4.05
2022-09-23T18:17:29.718Z,3.80
2022-09-23T18:19:55.860Z,5.47
2022-09-23T18:22:24.091Z,3.92
2022-09-23T18:30:24.858Z,3.88
2022-09-23T18:32:51.144Z,3.92
2022-09-23T18:38:07.646Z,7.63
2022-09-23T18:40:34.867Z,5.80
2022-09-23T18:43:01.133Z,5.10
2022-09-23T18:45:30.418Z,5.85
2022-09-23T18:47:56.593Z,6.68
2022-09-23T18:50:24.849Z,7.10
2022-09-23T18:52:51.261Z,9.88
2022-09-23T18:55:17.824Z,8.82
2022-09-23T18:58:02.586Z,8.70
2022-09-23T19:03:23.901Z,7.63
2022-09-23T19:05:50.044Z,7.00
2022-09-23T19:08:23.848Z,6.90
2022-09-23T19:10:53.050Z,7.18
2022-09-23T19:13:19.214Z,9.10
2022-09-23T19:15:45.889Z,8.38
2022-09-23T19:18:12.121Z,8.77
2022-09-23T19:20:38.403Z,10.23
2022-09-23T19:23:10.089Z,10.40
2022-09-23T19:25:37.814Z,9.02
2022-09-23T19:28:03.978Z,7.75
2022-09-23T19:30:30.340Z,7.95
2022-09-23T19:32:59.371Z,7.53
2022-09-23T19:35:25.699Z,8.75
2022-09-23T19:38:01.926Z,6.03
2022-09-23T19:40:28.216Z,7.20
2022-09-23T19:42:56.435Z,6.97
2022-09-23T19:45:22.559Z,5.78
2022-09-23T19:47:48.811Z,6.22
2022-09-23T19:50:14.944Z,7.07
2022-09-23T19:52:52.192Z,6.88
2022-09-23T20:01:00.302Z,4.00
2022-09-23T20:03:26.499Z,4.63
2022-09-23T20:05:55.716Z,4.68
2022-09-23T20:11:16.022Z,4.63
2022-09-23T20:13:42.162Z,7.65
2022-09-23T20:16:23.323Z,7.20
2022-09-23T20:18:49.571Z,5.75
2022-09-23T20:21:15.703Z,6.15
2022-09-23T20:23:41.974Z,6.05
2022-09-23T20:26:08.157Z,6.00
2022-09-23T20:34:14.739Z,7.50
2022-09-23T20:36:40.906Z,7.07
2022-09-23T20:39:07.065Z,6.25
2022-09-23T20:41:33.200Z,5.50
2022-09-23T20:43:59.374Z,5.20
2022-09-23T20:46:25.540Z,5.13
2022-09-23T20:48:51.740Z,5.22
2022-09-23T20:54:15.851Z,6.57
2022-09-23T20:56:41.980Z,6.88
2022-09-23T20:59:08.129Z,7.13
2022-09-23T21:01:34.352Z,7.70
2022-09-23T21:04:00.621Z,8.65
2022-09-23T21:06:26.823Z,8.32
2022-09-23T21:08:52.993Z,7.28
2022-09-23T21:11:19.123Z,6.57
2022-09-23T21:13:45.228Z,5.75
2022-09-23T21:16:11.483Z,5.88
2022-09-23T21:18:38.857Z,6.43
2022-09-23T21:21:05.003Z,5.53
2022-09-23T21:23:31.156Z,5.25
2022-09-23T21:25:57.268Z,5.50
2022-09-23T21:28:23.426Z,5.20
2022-09-23T21:30:51.949Z,5.60
2022-09-23T21:33:18.321Z,5.40
2022-09-23T21:35:44.445Z,5.43
2022-09-23T21:38:10.580Z,5.60
2022-09-23T21:40:36.775Z,5.78
2022-09-23T21:43:03.017Z,5.07
2022-09-23T21:45:29.244Z,5.30
2022-09-23T21:47:55.354Z,5.40
2022-09-23T21:50:21.483Z,5.43
2022-09-23T21:52:47.609Z,5.65
2022-09-23T21:55:13.787Z,5.45
2022-09-23T21:57:39.907Z,5.65
2022-09-23T22:00:06.159Z,5.20
2022-09-23T22:02:32.315Z,5.63
2022-09-23T22:04:58.428Z,5.18
2022-09-23T22:07:24.576Z,5.13
2022-09-23T22:09:50.701Z,5.53
2022-09-23T22:12:16.871Z,6.22
2022-09-23T22:14:43.004Z,5.55
2022-09-23T22:17:09.115Z,5.43
2022-09-23T22:19:35.762Z,5.53
2022-09-23T22:22:02.051Z,5.35
2022-09-23T22:24:28.432Z,5.20
2022-09-23T22:26:54.574Z,5.72
2022-09-23T22:29:20.693Z,5.63
2022-09-23T22:31:47.046Z,4.95
2022-09-23T22:34:31.071Z,4.65
2022-09-23T22:36:59.342Z,4.47
2022-09-23T22:39:25.472Z,5.43
2022-09-23T22:41:51.615Z,5.55
2022-09-23T22:44:17.750Z,5.32
2022-09-23T22:46:43.909Z,4.93
2022-09-23T22:49:10.342Z,5.18
2022-09-23T22:51:36.473Z,5.63
2022-09-23T22:54:02.611Z,4.97
2022-09-23T22:56:28.742Z,4.85
2022-09-23T22:58:54.864Z,5.78
2022-09-23T23:01:21.065Z,5.78
2022-09-23T23:03:47.264Z,6.32
2022-09-23T23:06:13.466Z,5.15
2022-09-23T23:08:39.647Z,5.72
2022-09-23T23:11:05.820Z,5.35
2022-09-23T23:13:31.931Z,5.47
2022-09-23T23:15:58.061Z,5.72
2022-09-23T23:18:26.744Z,5.80
2022-09-23T23:20:53.157Z,5.13
2022-09-23T23:23:19.296Z,5.28
2022-09-23T23:25:45.447Z,4.97
2022-09-23T23:28:11.598Z,5.55
2022-09-23T23:30:37.797Z,5.82
2022-09-23T23:33:03.941Z,5.22
2022-09-23T23:35:30.167Z,5.35
2022-09-23T23:37:56.294Z,5.00
2022-09-23T23:40:22.557Z,5.10
2022-09-23T23:42:48.760Z,5.20
2022-09-23T23:45:14.892Z,4.97
2022-09-23T23:47:41.017Z,4.97
2022-09-23T23:50:07.142Z,5.60
2022-09-23T23:52:33.266Z,5.85
2022-09-23T23:54:59.412Z,5.78
2022-09-23T23:57:25.542Z,5.93
2022-09-23T23:59:51.667Z,6.18
